Time;durP1;ratioP1;P1;durP2;ratioP2;P2;SDS_P1;SDS_P2;PMS_P1;PMS_P2;Temp;Humidity;BMP_temperature;BMP_pressure;BME280_temperature;BME280_humidity;BME280_pressure;Samples;Min_cycle;Max_cycle;Signal;HPM_P1;HPM_P2
2022/08/10 00:01:04;;;;;;;4.93;4.05;;;;;;;18.25;83.14;91148.09;5030988;28;20411;-69
2022/08/10 00:03:30;;;;;;;4.45;4.03;;;;;;;18.33;82.42;91154.44;5031116;28;20033;-69
2022/08/10 00:05:55;;;;;;;5.05;4.43;;;;;;;18.35;82.17;91152.19;5031084;28;20113;-69
2022/08/10 00:08:23;;;;;;;4.70;3.97;;;;;;;18.35;81.67;91149.50;5030720;28;20057;-69
2022/08/10 00:10:54;;;;;;;5.75;4.03;;;;;;;18.27;83.37;91141.22;5031037;28;20028;-69
2022/08/10 00:13:20;;;;;;;5.28;4.20;;;;;;;18.22;82.39;91144.19;5030952;28;20025;-69
2022/08/10 00:15:46;;;;;;;3.95;3.58;;;;;;;18.24;81.50;91144.63;5013194;28;20388;-68
2022/08/10 00:18:11;;;;;;;3.88;3.55;;;;;;;18.35;80.66;91144.09;5030866;28;20037;-68
2022/08/10 00:20:37;;;;;;;4.25;3.85;;;;;;;18.33;81.42;91147.16;5030917;28;20032;-68
2022/08/10 00:23:02;;;;;;;6.05;4.45;;;;;;;18.30;80.98;91145.13;5030903;28;20104;-68
2022/08/10 00:25:28;;;;;;;6.97;4.03;;;;;;;18.35;79.42;91146.81;5030922;28;20503;-68
2022/08/10 00:27:53;;;;;;;12.55;4.07;;;;;;;18.35;78.55;91144.88;5030824;28;20033;-68
2022/08/10 00:30:19;;;;;;;5.45;4.18;;;;;;;18.42;77.50;91131.56;5030745;28;20033;-68
2022/08/10 00:32:44;;;;;;;5.78;3.53;;;;;;;18.34;77.50;91134.47;5030831;28;20450;-68
2022/08/10 00:35:10;;;;;;;4.30;3.63;;;;;;;18.36;78.23;91137.59;5031051;28;20175;-68
2022/08/10 00:37:35;;;;;;;5.97;3.75;;;;;;;18.31;77.98;91135.16;5030601;28;20049;-69
2022/08/10 00:40:03;;;;;;;3.70;3.40;;;;;;;18.15;80.57;91138.66;5030705;28;20029;-69
2022/08/10 00:42:28;;;;;;;4.65;4.07;;;;;;;18.09;81.14;91141.94;5029731;28;20045;-68
2022/08/10 00:44:53;;;;;;;5.68;4.22;;;;;;;18.07;81.06;91133.44;5030651;28;20021;-69
2022/08/10 00:47:19;;;;;;;3.80;3.50;;;;;;;18.03;80.47;91138.75;5030515;28;20112;-68
2022/08/10 00:49:45;;;;;;;4.10;3.70;;;;;;;17.93;82.70;91136.56;5033457;28;20036;-68
2022/08/10 00:52:13;;;;;;;5.00;3.35;;;;;;;17.87;83.12;91135.28;5034261;28;20029;-69
2022/08/10 00:54:41;;;;;;;4.28;3.60;;;;;;;17.77;83.79;91139.28;5034176;28;20065;-69
2022/08/10 00:57:06;;;;;;;4.05;3.65;;;;;;;17.71;84.51;91134.50;5034100;28;20029;-68
2022/08/10 00:59:32;;;;;;;4.07;3.33;;;;;;;17.67;84.98;91139.75;5034125;28;20025;-68
2022/08/10 01:01:59;;;;;;;4.13;3.45;;;;;;;17.57;85.68;91141.06;5033993;28;20056;-69
2022/08/10 01:04:25;;;;;;;4.28;3.60;;;;;;;17.50;86.26;91130.09;5033984;28;20479;-68
2022/08/10 01:07:05;;;;;;;6.15;4.10;;;;;;;17.53;86.01;91134.81;5033810;28;20061;-68
2022/08/10 01:09:49;;;;;;;4.15;3.75;;;;;;;17.56;86.57;91133.34;5033788;28;20468;-68
2022/08/10 01:12:59;;;;;;;3.95;3.35;;;;;;;17.49;92.24;91139.28;5033910;28;20033;-68
2022/08/10 01:15:39;;;;;;;4.90;3.60;;;;;;;17.43;94.00;91145.28;5033792;28;20495;-68
2022/08/10 01:18:12;;;;;;;4.00;3.25;;;;;;;17.32;95.85;91145.00;5033700;28;20041;-69
2022/08/10 01:20:43;;;;;;;4.60;3.75;;;;;;;17.43;91.71;91137.22;5033562;28;20458;-68
2022/08/10 01:23:26;;;;;;;3.65;3.35;;;;;;;17.49;91.90;91135.81;5033614;28;20036;-68
2022/08/10 01:26:25;;;;;;;3.58;3.28;;;;;;;17.52;92.16;91127.88;5033634;28;20037;-68
2022/08/10 01:29:42;;;;;;;3.25;2.72;;;;;;;17.26;95.08;91122.19;5033598;28;20313;-68
2022/08/10 01:32:12;;;;;;;3.83;3.53;;;;;;;17.08;97.21;91129.00;4991890;28;20077;-67
2022/08/10 01:34:55;;;;;;;4.40;3.30;;;;;;;16.94;100.00;91129.38;5026013;28;20120;-68
2022/08/10 01:37:25;;;;;;;5.18;3.95;;;;;;;16.77;100.00;91120.47;5033423;28;20483;-67
2022/08/10 01:39:56;;;;;;;3.95;3.50;;;;;;;16.70;100.00;91119.47;5033242;28;20057;-67
2022/08/10 01:42:23;;;;;;;3.60;3.22;;;;;;;16.63;100.00;91130.78;5033372;28;20025;-67
2022/08/10 01:44:55;;;;;;;3.88;3.25;;;;;;;16.55;100.00;91128.22;5033316;28;20022;-68
2022/08/10 01:50:18;;;;;;;4.72;3.60;;;;;;;16.46;100.00;91134.53;5033491;28;20032;-68
2022/08/10 01:52:48;;;;;;;8.38;4.53;;;;;;;16.48;100.00;91140.34;5015299;28;20503;-68
2022/08/10 01:55:15;;;;;;;5.80;4.15;;;;;;;16.50;100.00;91136.53;5033105;28;20108;-69
2022/08/10 01:57:44;;;;;;;4.43;3.80;;;;;;;16.59;100.00;91131.81;5032923;28;20017;-68
2022/08/10 02:00:12;;;;;;;5.25;3.80;;;;;;;16.59;100.00;91134.50;5032054;28;20062;-68
2022/08/10 02:02:41;;;;;;;3.50;3.20;;;;;;;16.63;100.00;91140.75;5032962;28;20028;-68
2022/08/10 02:05:08;;;;;;;3.13;2.83;;;;;;;16.63;100.00;91130.00;5032932;28;20128;-68
2022/08/10 02:07:36;;;;;;;4.63;2.70;;;;;;;16.47;100.00;91138.78;5032732;28;20022;-68
2022/08/10 02:10:05;;;;;;;3.42;2.97;;;;;;;16.54;100.00;91154.31;5032746;28;20263;-68
2022/08/10 02:12:34;;;;;;;4.05;2.95;;;;;;;16.49;100.00;91146.47;5032670;28;20431;-69
2022/08/10 02:15:09;;;;;;;3.45;2.75;;;;;;;16.51;100.00;91154.97;5195266;22;20088;-69
2022/08/10 02:17:43;;;;;;;3.72;2.92;;;;;;;16.43;100.00;91158.59;5052388;28;20043;-68
2022/08/10 02:20:17;;;;;;;4.10;2.97;;;;;;;16.34;100.00;91139.91;5052648;28;20063;-68
2022/08/10 02:22:43;;;;;;;;;;;;;;;16.46;100.00;91153.31;5053022;28;20537;-68
2022/08/10 02:25:10;;;;;;;4.30;3.58;;;;;;;16.43;100.00;91148.63;5052342;28;19995;-71
2022/08/10 02:27:36;;;;;;;4.13;3.72;;;;;;;16.42;100.00;91152.44;5052380;28;20107;-69
2022/08/10 02:30:04;;;;;;;5.85;3.65;;;;;;;16.41;100.00;91153.56;5052367;28;20031;-69
2022/08/10 02:32:32;;;;;;;4.47;3.63;;;;;;;16.44;100.00;91147.50;5052361;28;20033;-69
2022/08/10 02:34:59;;;;;;;3.70;3.30;;;;;;;16.39;100.00;91139.66;5052097;28;20029;-70
2022/08/10 02:37:26;;;;;;;3.88;3.45;;;;;;;16.30;100.00;91130.97;5052266;28;20033;-71
2022/08/10 02:39:52;;;;;;;5.63;4.40;;;;;;;16.34;100.00;91147.97;5052181;28;20024;-71
2022/08/10 02:42:23;;;;;;;4.57;4.15;;;;;;;16.30;100.00;91141.72;5052118;28;20036;-71
2022/08/10 02:44:51;;;;;;;4.82;3.90;;;;;;;16.18;100.00;91141.72;5051946;28;20384;-70
2022/08/10 02:47:29;;;;;;;7.03;4.57;;;;;;;16.10;100.00;91145.31;5051995;28;20108;-70
2022/08/10 02:50:26;;;;;;;4.28;3.88;;;;;;;16.06;100.00;91145.19;5051964;28;20115;-70
2022/08/10 02:53:13;;;;;;;3.47;3.17;;;;;;;16.01;100.00;91141.94;5044461;28;20041;-71
2022/08/10 02:55:45;;;;;;;3.60;3.08;;;;;;;15.97;100.00;91147.22;5051820;28;20036;-70
2022/08/10 02:58:15;;;;;;;4.65;3.53;;;;;;;15.98;100.00;91150.69;5051798;28;20029;-70
2022/08/10 03:00:47;;;;;;;5.95;3.42;;;;;;;15.96;100.00;91151.00;5051811;28;20070;-70
2022/08/10 03:03:25;;;;;;;3.97;3.30;;;;;;;15.93;100.00;91153.56;5051777;28;20057;-71
2022/08/10 03:05:55;;;;;;;5.25;3.45;;;;;;;15.81;100.00;91155.16;5051564;28;20028;-71
2022/08/10 03:08:31;;;;;;;4.22;3.83;;;;;;;15.82;100.00;91155.94;5051591;28;20025;-71
2022/08/10 03:11:00;;;;;;;4.35;3.33;;;;;;;15.79;100.00;91151.22;5051444;28;20036;-71
2022/08/10 03:13:27;;;;;;;4.88;3.28;;;;;;;15.82;100.00;91151.34;5033646;28;20419;-71
2022/08/10 03:15:54;;;;;;;3.60;2.92;;;;;;;15.87;100.00;91153.78;5051177;28;20041;-69
2022/08/10 03:18:23;;;;;;;4.75;3.10;;;;;;;15.95;100.00;91152.13;5051497;28;20025;-70
2022/08/10 03:20:50;;;;;;;3.47;2.92;;;;;;;15.97;100.00;91157.16;5051632;28;20111;-69
2022/08/10 03:23:20;;;;;;;3.83;2.95;;;;;;;15.98;100.00;91158.72;5051351;28;20017;-71
2022/08/10 03:25:48;;;;;;;4.15;3.60;;;;;;;16.01;100.00;91152.69;5051167;28;20091;-69
2022/08/10 03:28:15;;;;;;;4.43;3.50;;;;;;;15.99;100.00;91150.34;5051472;28;20040;-70
2022/08/10 03:30:42;;;;;;;4.20;3.35;;;;;;;15.97;100.00;91149.13;5051321;28;20029;-70
2022/08/10 03:33:09;;;;;;;5.82;3.78;;;;;;;15.89;100.00;91145.41;5051282;28;20032;-71
2022/08/10 03:35:34;;;;;;;3.97;3.42;;;;;;;15.86;100.00;91157.59;5051054;28;20018;-69
2022/08/10 03:38:00;;;;;;;6.03;3.85;;;;;;;15.82;100.00;91145.97;5051116;28;20036;-70
2022/08/10 03:40:29;;;;;;;5.90;4.60;;;;;;;15.85;100.00;91150.66;5051160;28;20029;-70
2022/08/10 03:42:57;;;;;;;6.82;4.65;;;;;;;15.82;100.00;91153.25;5051076;28;20094;-70
2022/08/10 03:45:24;;;;;;;12.18;6.03;;;;;;;15.80;100.00;91164.31;5051064;28;20029;-70
2022/08/10 03:47:50;;;;;;;5.47;4.45;;;;;;;15.80;100.00;91161.63;5050891;28;20032;-69
2022/08/10 03:50:17;;;;;;;4.07;3.70;;;;;;;15.75;100.00;91150.31;5051014;28;20025;-69
2022/08/10 03:52:43;;;;;;;5.88;3.75;;;;;;;15.83;100.00;91162.84;5051127;28;20029;-70
2022/08/10 03:55:10;;;;;;;8.40;3.67;;;;;;;15.94;100.00;91166.66;5050974;28;20453;-70
2022/08/10 03:57:36;;;;;;;4.10;3.20;;;;;;;15.99;100.00;91171.81;5051024;28;20033;-70
2022/08/10 04:00:03;;;;;;;3.47;3.17;;;;;;;15.99;100.00;91176.41;5050890;28;20028;-70
2022/08/10 04:02:30;;;;;;;5.10;3.78;;;;;;;15.96;100.00;91172.47;5050953;28;20120;-70
2022/08/10 04:04:55;;;;;;;4.07;3.53;;;;;;;16.01;100.00;91174.94;5050849;28;20061;-70
2022/08/10 04:07:21;;;;;;;4.50;3.95;;;;;;;16.09;100.00;91170.56;5050848;28;20430;-70
2022/08/10 04:09:47;;;;;;;2.90;2.65;;;;;;;16.03;100.00;91172.69;5050839;28;20088;-70
2022/08/10 04:12:13;;;;;;;3.40;3.10;;;;;;;16.00;100.00;91175.28;5050876;28;20090;-69
2022/08/10 04:14:39;;;;;;;4.50;3.25;;;;;;;15.87;100.00;91182.53;5050583;28;20530;-69
2022/08/10 04:17:04;;;;;;;3.25;2.78;;;;;;;15.81;100.00;91171.25;5050726;28;20159;-69
2022/08/10 04:19:39;;;;;;;3.20;2.90;;;;;;;15.76;100.00;91173.34;5050772;28;20040;-69
2022/08/10 04:22:16;;;;;;;4.38;3.13;;;;;;;15.81;100.00;91173.13;5050709;28;20086;-69
2022/08/10 04:24:45;;;;;;;6.60;2.67;;;;;;;15.79;100.00;91168.13;5053625;28;20047;-70
2022/08/10 04:27:11;;;;;;;4.72;3.70;;;;;;;15.91;100.00;91171.91;5054587;28;20072;-71
2022/08/10 04:29:37;;;;;;;4.30;3.45;;;;;;;15.91;100.00;91172.69;5054606;28;20025;-70
2022/08/10 04:32:03;;;;;;;3.30;2.75;;;;;;;15.96;100.00;91171.69;5054522;28;20418;-69
2022/08/10 04:34:31;;;;;;;5.20;3.78;;;;;;;15.97;100.00;91174.03;5054441;28;20056;-70
2022/08/10 04:36:59;;;;;;;2.85;2.65;;;;;;;16.03;100.00;91174.59;5036532;28;20442;-70
2022/08/10 04:39:25;;;;;;;3.17;2.88;;;;;;;16.12;100.00;91170.69;5054417;28;20025;-70
2022/08/10 04:41:51;;;;;;;5.38;3.83;;;;;;;16.18;100.00;91168.56;5054270;28;20029;-70
2022/08/10 04:44:17;;;;;;;4.40;3.72;;;;;;;16.33;100.00;91173.25;5036363;28;20036;-70
2022/08/10 04:46:42;;;;;;;5.55;3.65;;;;;;;16.55;100.00;91177.34;5054380;28;20513;-70
2022/08/10 04:49:07;;;;;;;3.78;3.15;;;;;;;16.62;100.00;91168.75;5054296;28;20025;-70
2022/08/10 04:51:33;;;;;;;3.20;2.88;;;;;;;16.68;100.00;91175.47;5054280;28;20052;-70
2022/08/10 04:53:59;;;;;;;4.00;3.30;;;;;;;16.69;100.00;91182.41;5054132;28;20101;-70
2022/08/10 04:56:24;;;;;;;4.05;3.33;;;;;;;16.60;100.00;91181.72;5054176;28;20032;-70
2022/08/10 04:58:50;;;;;;;3.42;3.13;;;;;;;16.65;100.00;91179.56;5054167;28;20035;-70
2022/08/10 05:01:15;;;;;;;4.22;3.35;;;;;;;16.83;100.00;91182.81;5054043;28;20417;-70
2022/08/10 05:03:40;;;;;;;5.72;3.80;;;;;;;17.04;99.52;91182.63;5053958;28;20025;-70
2022/08/10 05:06:06;;;;;;;5.00;4.50;;;;;;;17.34;96.62;91183.06;5053967;28;20478;-70
2022/08/10 05:08:32;;;;;;;5.20;4.05;;;;;;;17.53;93.00;91183.22;5053812;28;20021;-69
2022/08/10 05:10:57;;;;;;;5.38;3.80;;;;;;;17.72;91.74;91176.44;5054084;28;20063;-70
2022/08/10 05:13:22;;;;;;;3.25;2.95;;;;;;;18.12;87.98;91177.03;5053830;28;20524;-70
2022/08/10 05:15:50;;;;;;;4.13;3.38;;;;;;;20.10;76.36;91170.75;5053534;28;20494;-70
2022/08/10 05:18:16;;;;;;;7.47;3.38;;;;;;;22.73;64.13;91172.41;5053684;28;20039;-71
2022/08/10 05:20:42;;;;;;;4.10;3.53;;;;;;;25.11;54.68;91180.53;5053771;28;20024;-71
2022/08/10 05:23:07;;;;;;;5.38;3.60;;;;;;;27.04;48.96;91179.19;5053702;28;20442;-70
2022/08/10 05:25:33;;;;;;;3.65;3.28;;;;;;;27.20;47.88;91183.34;5053574;28;20035;-70
2022/08/10 05:27:58;;;;;;;4.32;3.45;;;;;;;28.37;45.29;91176.53;5053397;28;20028;-70
2022/08/10 05:30:24;;;;;;;3.75;3.08;;;;;;;28.84;43.20;91188.34;5053518;28;20036;-70
2022/08/10 05:32:50;;;;;;;3.50;3.20;;;;;;;29.25;41.74;91184.59;5053471;28;20036;-70
2022/08/10 05:35:15;;;;;;;3.72;3.30;;;;;;;29.69;41.27;91174.44;5053389;28;20075;-70
2022/08/10 05:37:43;;;;;;;4.22;2.95;;;;;;;29.22;41.62;91177.22;5053484;28;20025;-70
2022/08/10 05:40:09;;;;;;;3.38;3.08;;;;;;;30.62;39.11;91179.59;5053338;28;20055;-70
2022/08/10 05:42:35;;;;;;;3.30;3.00;;;;;;;31.15;38.60;91177.56;5053357;28;20478;-70
2022/08/10 05:45:01;;;;;;;2.70;2.30;;;;;;;30.53;38.83;91175.84;5053293;28;20502;-70
2022/08/10 05:47:26;;;;;;;2.85;2.45;;;;;;;30.46;39.01;91170.53;5053194;28;20074;-70
2022/08/10 05:49:52;;;;;;;3.63;2.70;;;;;;;27.52;43.18;91166.63;5035226;28;20487;-70
2022/08/10 05:52:18;;;;;;;3.55;3.10;;;;;;;25.47;47.17;91171.09;5053052;28;20029;-70
2022/08/10 05:54:45;;;;;;;3.30;2.80;;;;;;;25.62;47.53;91177.28;5052942;28;20045;-70
2022/08/10 05:57:14;;;;;;;3.80;3.28;;;;;;;25.57;48.02;91172.25;5053050;28;20513;-70
2022/08/10 05:59:46;;;;;;;3.63;3.15;;;;;;;24.77;49.90;91162.66;5053073;28;20025;-70
2022/08/10 06:02:17;;;;;;;4.85;3.35;;;;;;;24.12;51.76;91160.25;5052973;28;20029;-70
2022/08/10 06:04:44;;;;;;;8.35;4.38;;;;;;;24.30;52.21;91161.09;5052539;28;20029;-70
2022/08/10 06:07:13;;;;;;;4.13;3.72;;;;;;;25.42;50.86;91168.03;5052708;28;20025;-70
2022/08/10 06:09:42;;;;;;;3.78;3.47;;;;;;;27.71;46.61;91160.56;5052734;28;20082;-71
2022/08/10 06:12:08;;;;;;;3.20;2.83;;;;;;;31.14;39.92;91159.53;5052737;28;20023;-70
2022/08/10 06:17:22;;;;;;;3.60;3.30;;;;;;;33.02;36.73;91156.25;5052941;28;20108;-70
2022/08/10 06:19:49;;;;;;;2.45;2.25;;;;;;;33.88;35.11;91165.22;5052524;28;20086;-73
2022/08/10 06:22:16;;;;;;;2.72;2.47;;;;;;;32.67;36.32;91160.88;5052570;28;20032;-70
2022/08/10 06:24:42;;;;;;;3.42;2.88;;;;;;;32.62;37.23;91158.66;5052468;28;20116;-70
2022/08/10 06:27:08;;;;;;;3.28;2.58;;;;;;;31.52;37.75;91157.00;5052678;28;20104;-71
2022/08/10 06:29:36;;;;;;;3.60;2.90;;;;;;;28.67;41.71;91167.50;5052421;28;20116;-71
2022/08/10 06:32:04;;;;;;;5.05;3.47;;;;;;;26.60;45.99;91160.81;5052362;28;20108;-70
2022/08/10 06:34:34;;;;;;;4.60;3.72;;;;;;;26.65;46.94;91159.59;5052247;28;20711;-71
2022/08/10 06:37:02;;;;;;;4.35;3.40;;;;;;;30.83;40.10;91167.34;5052276;28;20032;-71
2022/08/10 06:39:28;;;;;;;3.25;2.95;;;;;;;34.58;35.62;91165.09;5052172;28;20025;-73
2022/08/10 06:42:00;;;;;;;2.97;2.65;;;;;;;35.72;33.82;91170.41;5052144;28;20240;-74
2022/08/10 06:44:31;;;;;;;5.00;3.95;;;;;;;36.83;33.00;91165.59;5052068;28;20506;-74
2022/08/10 06:46:58;;;;;;;3.92;2.90;;;;;;;38.72;29.92;91173.66;5051527;28;20037;-74
2022/08/10 06:49:24;;;;;;;3.40;2.83;;;;;;;40.39;29.60;91180.91;5052296;28;20033;-73
2022/08/10 06:51:54;;;;;;;3.28;2.97;;;;;;;40.88;27.81;91168.03;5051978;28;20036;-71
2022/08/10 06:54:23;;;;;;;4.10;3.05;;;;;;;40.89;27.51;91160.41;5051862;28;20067;-74
2022/08/10 06:56:51;;;;;;;3.53;2.75;;;;;;;41.47;26.83;91175.84;5052195;28;20037;-71
2022/08/10 06:59:19;;;;;;;3.63;2.88;;;;;;;39.41;28.18;91172.25;5051881;28;20021;-73
2022/08/10 07:01:49;;;;;;;2.95;2.75;;;;;;;36.40;31.17;91167.53;5051861;28;20086;-74
2022/08/10 07:04:24;;;;;;;2.95;2.67;;;;;;;36.14;32.03;91171.84;5051925;28;20103;-73
2022/08/10 07:06:50;;;;;;;6.45;3.33;;;;;;;35.08;32.83;91178.56;5051670;28;20028;-73
2022/08/10 07:09:18;;;;;;;2.88;2.60;;;;;;;37.19;30.47;91175.78;5051731;28;20032;-73
2022/08/10 07:11:46;;;;;;;3.35;2.60;;;;;;;38.40;29.55;91171.81;5051675;28;20032;-73
2022/08/10 07:14:13;;;;;;;3.33;2.72;;;;;;;39.47;28.19;91170.31;5051352;28;20513;-72
2022/08/10 07:16:41;;;;;;;3.25;2.95;;;;;;;38.86;28.30;91164.56;5051540;28;20037;-73
2022/08/10 07:19:11;;;;;;;3.65;3.10;;;;;;;38.78;28.97;91160.63;5051489;28;20410;-72
2022/08/10 07:21:40;;;;;;;3.80;2.97;;;;;;;40.49;27.48;91175.97;5051536;28;20025;-71
2022/08/10 07:24:09;;;;;;;3.13;2.88;;;;;;;40.65;26.90;91161.41;5051376;28;20032;-72
2022/08/10 07:26:36;;;;;;;3.97;3.08;;;;;;;39.38;27.93;91167.66;5051428;28;20064;-72
2022/08/10 07:29:04;;;;;;;5.13;3.58;;;;;;;38.92;28.46;91165.41;5051552;28;20107;-72
2022/08/10 07:31:31;;;;;;;4.85;3.75;;;;;;;39.65;28.22;91165.78;5051569;28;20075;-70
2022/08/10 07:33:58;;;;;;;2.92;2.63;;;;;;;39.44;27.81;91162.91;5051202;28;20029;-70
2022/08/10 07:36:25;;;;;;;3.97;3.00;;;;;;;38.83;28.54;91159.97;5051547;28;20033;-71
2022/08/10 07:38:54;;;;;;;3.78;2.78;;;;;;;39.89;27.75;91160.78;5051147;28;20037;-71
2022/08/10 07:41:22;;;;;;;3.38;3.00;;;;;;;39.36;28.16;91170.16;5030065;28;20108;-72
2022/08/10 07:43:49;;;;;;;3.28;2.30;;;;;;;39.78;27.56;91171.78;5031036;28;20419;-69
2022/08/10 07:46:18;;;;;;;2.60;2.40;;;;;;;39.94;27.37;91162.88;5030986;28;20543;-71
2022/08/10 07:48:47;;;;;;;3.22;2.92;;;;;;;39.10;27.44;91175.56;5030550;28;20045;-72
2022/08/10 07:51:17;;;;;;;3.40;2.53;;;;;;;38.04;29.39;91156.97;5031392;28;20033;-72
2022/08/10 07:53:53;;;;;;;4.57;2.50;;;;;;;35.93;31.06;91168.75;5031054;28;20033;-72
2022/08/10 07:56:24;;;;;;;3.55;2.92;;;;;;;36.24;31.47;91162.28;5030922;28;20398;-72
2022/08/10 07:58:58;;;;;;;2.60;2.40;;;;;;;36.53;30.58;91154.25;5032575;28;20036;-72
2022/08/10 08:01:33;;;;;;;2.85;2.40;;;;;;;35.13;33.08;91161.34;5035059;28;20017;-73
2022/08/10 08:04:01;;;;;;;3.10;2.80;;;;;;;35.59;32.17;91144.88;5034872;28;20380;-73
2022/08/10 08:06:31;;;;;;;3.25;2.83;;;;;;;35.58;32.32;91151.66;5034980;28;20029;-72
2022/08/10 08:08:59;;;;;;;3.40;3.03;;;;;;;36.75;30.78;91148.47;5034813;28;20030;-72
2022/08/10 08:11:26;;;;;;;3.17;2.78;;;;;;;35.61;32.79;91150.72;5034731;28;20033;-72
2022/08/10 08:13:53;;;;;;;3.55;2.67;;;;;;;37.00;30.14;91152.91;5034585;28;20419;-72
2022/08/10 08:16:21;;;;;;;3.55;2.50;;;;;;;39.15;29.70;91157.44;5034543;28;20503;-72
2022/08/10 08:18:49;;;;;;;2.60;2.40;;;;;;;37.79;30.63;91149.13;5034297;28;20060;-72
2022/08/10 08:21:15;;;;;;;3.03;2.33;;;;;;;37.62;30.10;91146.72;5034618;28;20516;-72
2022/08/10 08:23:42;;;;;;;2.78;2.58;;;;;;;36.02;32.10;91153.38;5034455;28;20022;-72
2022/08/10 08:26:10;;;;;;;2.60;2.40;;;;;;;38.75;29.93;91156.00;5034482;28;20071;-73
2022/08/10 08:28:36;;;;;;;2.70;2.50;;;;;;;39.92;27.28;91142.31;5034415;28;20029;-74
2022/08/10 08:31:03;;;;;;;3.42;2.50;;;;;;;40.22;27.29;91145.72;5034648;28;20067;-76
2022/08/10 08:33:32;;;;;;;3.78;2.55;;;;;;;39.96;28.14;91137.31;5034004;28;20049;-76
2022/08/10 08:35:59;;;;;;;3.22;2.45;;;;;;;37.65;30.98;91142.25;5034552;28;20502;-71
2022/08/10 08:38:26;;;;;;;3.65;3.08;;;;;;;37.17;31.68;91145.72;5034457;28;20104;-76
2022/08/10 08:41:08;;;;;;;3.17;2.88;;;;;;;38.48;29.67;91142.34;5034343;28;20056;-73
2022/08/10 08:43:36;;;;;;;2.80;2.50;;;;;;;38.06;30.50;91143.34;5034514;28;20029;-73
2022/08/10 08:46:17;;;;;;;3.90;3.50;;;;;;;40.73;27.93;91142.22;5034296;28;20025;-71
2022/08/10 08:49:01;;;;;;;3.80;2.85;;;;;;;38.57;28.96;91147.84;5033875;28;20036;-74
2022/08/10 08:51:57;;;;;;;3.28;2.70;;;;;;;37.72;30.62;91139.88;5034226;28;20021;-73
2022/08/10 08:54:31;;;;;;;5.85;3.15;;;;;;;37.07;30.83;91135.13;5034054;28;20403;-73
2022/08/10 08:57:30;;;;;;;2.50;2.30;;;;;;;34.53;33.52;91138.81;5033986;28;20061;-74
2022/08/10 09:00:02;;;;;;;4.40;2.53;;;;;;;33.92;34.68;91138.25;5033874;28;20403;-73
2022/08/10 09:02:45;;;;;;;2.40;2.20;;;;;;;34.59;33.51;91139.78;5033620;28;20032;-74
2022/08/10 09:05:54;;;;;;;2.50;2.30;;;;;;;36.96;30.37;91141.22;5033669;28;20030;-73
2022/08/10 09:09:10;;;;;;;3.03;2.60;;;;;;;37.74;29.85;91148.53;5012513;28;20109;-73
2022/08/10 09:12:07;;;;;;;2.75;2.50;;;;;;;37.64;29.75;91137.94;5007990;28;20068;-73
2022/08/10 09:15:01;;;;;;;3.13;2.72;;;;;;;39.15;28.84;91143.53;5033575;28;20060;-72
2022/08/10 09:17:52;;;;;;;2.78;2.40;;;;;;;38.63;29.52;91134.78;5033332;28;20095;-74
2022/08/10 09:20:28;;;;;;;2.47;2.28;;;;;;;39.31;29.55;91139.47;5006666;28;20127;-72
2022/08/10 09:23:27;;;;;;;2.97;2.65;;;;;;;40.79;27.48;91128.31;5033697;28;20021;-69
2022/08/10 09:25:59;;;;;;;3.05;2.50;;;;;;;36.94;31.20;91135.38;5009673;28;20514;-70
2022/08/10 09:28:30;;;;;;;4.77;3.17;;;;;;;36.28;32.33;91129.63;5033597;28;20076;-69
2022/08/10 09:31:09;;;;;;;3.67;2.85;;;;;;;35.53;31.96;91129.34;5033886;28;20079;-70
2022/08/10 09:33:56;;;;;;;3.85;2.92;;;;;;;33.73;35.61;91127.50;5033356;28;20788;-70
2022/08/10 09:36:22;;;;;;;3.03;2.58;;;;;;;36.73;32.52;91128.78;5033480;28;20567;-69
2022/08/10 09:39:55;;;;;;;2.78;2.55;;;;;;;38.57;30.44;91128.38;5033483;28;20061;-69
2022/08/10 09:42:58;;;;;;;3.05;2.75;;;;;;;39.95;29.03;91125.41;4963977;28;20530;-69
2022/08/10 09:45:43;;;;;;;3.10;2.80;;;;;;;39.50;29.31;91122.00;4972331;28;20109;-69
2022/08/10 09:48:38;;;;;;;4.85;3.63;;;;;;;38.55;29.36;91116.97;5033169;28;20036;-69
2022/08/10 09:51:12;;;;;;;3.13;2.80;;;;;;;39.06;29.82;91118.56;5007356;28;20092;-69
2022/08/10 09:53:59;;;;;;;4.05;3.50;;;;;;;38.61;30.15;91115.81;5033143;28;20032;-70
2022/08/10 09:56:27;;;;;;;4.13;3.40;;;;;;;40.66;28.23;91112.75;5033076;28;20041;-70
2022/08/10 09:59:15;;;;;;;3.10;2.80;;;;;;;39.01;29.19;91108.91;5033074;28;20037;-70
2022/08/10 10:01:54;;;;;;;5.07;3.00;;;;;;;38.53;30.43;91102.78;5033159;28;20041;-70
2022/08/10 10:04:48;;;;;;;3.50;3.20;;;;;;;39.65;28.97;91102.50;5032914;28;20104;-70
2022/08/10 10:07:24;;;;;;;3.25;2.90;;;;;;;37.66;31.23;91102.88;5032857;28;20033;-71
2022/08/10 10:10:00;;;;;;;5.43;3.28;;;;;;;37.13;32.29;91102.75;5032752;28;20132;-70
2022/08/10 10:12:38;;;;;;;5.30;4.32;;;;;;;36.88;32.20;91101.19;5032874;28;20108;-70
2022/08/10 10:15:22;;;;;;;3.08;2.78;;;;;;;36.84;32.00;91095.81;5032706;28;20480;-70
2022/08/10 10:18:06;;;;;;;3.45;3.00;;;;;;;38.24;29.88;91089.66;5032797;28;20407;-70
2022/08/10 10:20:41;;;;;;;4.45;3.50;;;;;;;38.22;30.35;91092.16;5032355;28;20418;-70
2022/08/10 10:23:33;;;;;;;5.18;3.25;;;;;;;36.19;32.45;91085.34;5032476;28;20043;-72
2022/08/10 10:26:25;;;;;;;3.50;3.15;;;;;;;32.52;36.61;91087.38;5032675;28;20406;-70
2022/08/10 10:29:29;;;;;;;4.25;3.10;;;;;;;33.93;35.21;91083.84;5032440;28;20025;-70
2022/08/10 10:32:05;;;;;;;3.90;2.90;;;;;;;35.08;33.70;91079.00;5032429;28;20048;-70
2022/08/10 10:34:52;;;;;;;3.35;3.03;;;;;;;35.63;32.59;91075.53;5032569;28;20116;-72
2022/08/10 10:37:21;;;;;;;4.10;3.03;;;;;;;32.96;35.09;91077.31;5032385;28;20084;-70
2022/08/10 10:39:51;;;;;;;3.60;2.97;;;;;;;35.59;32.89;91066.63;5032398;28;20022;-70
2022/08/10 10:42:48;;;;;;;3.83;2.97;;;;;;;34.50;35.06;91078.94;5032264;28;20056;-71
2022/08/10 10:45:24;;;;;;;3.15;2.85;;;;;;;35.64;34.25;91071.53;5030884;28;20029;-71
2022/08/10 10:47:58;;;;;;;3.22;2.92;;;;;;;33.55;35.03;91070.97;5032055;28;20025;-71
2022/08/10 10:50:23;;;;;;;4.55;3.15;;;;;;;33.58;35.71;91075.56;5032065;28;20029;-70
2022/08/10 10:53:18;;;;;;;4.70;3.00;;;;;;;35.72;31.73;91067.22;5032077;28;20510;-70
2022/08/10 10:56:10;;;;;;;2.70;2.50;;;;;;;33.56;35.24;91061.47;5032011;28;20037;-72
2022/08/10 10:58:54;;;;;;;3.75;3.38;;;;;;;31.42;37.61;91063.81;5032325;28;20403;-72
2022/08/10 11:01:40;;;;;;;2.80;2.60;;;;;;;30.32;39.21;91059.84;5031862;28;20021;-71
2022/08/10 11:04:11;;;;;;;3.28;2.45;;;;;;;33.40;35.55;91049.84;5031717;28;20099;-72
2022/08/10 11:06:58;;;;;;;3.05;2.72;;;;;;;34.11;35.04;91053.56;5031787;28;20029;-72
2022/08/10 11:09:33;;;;;;;2.80;2.60;;;;;;;30.61;39.32;91037.97;5031790;28;20036;-70
2022/08/10 11:12:08;;;;;;;3.55;2.58;;;;;;;29.94;39.78;91051.25;5031720;28;20028;-70
2022/08/10 11:14:47;;;;;;;3.92;3.35;;;;;;;29.57;41.25;91046.19;5031537;28;20463;-70
2022/08/10 11:17:31;;;;;;;2.90;2.60;;;;;;;30.31;40.52;91049.28;5031679;28;20064;-70
2022/08/10 11:20:36;;;;;;;3.47;3.17;;;;;;;29.66;40.93;91035.41;5031869;28;20431;-70
2022/08/10 11:23:08;;;;;;;4.13;3.00;;;;;;;28.52;44.46;91048.47;5031502;28;20069;-71
2022/08/10 11:25:41;;;;;;;6.10;3.72;;;;;;;29.02;44.10;91042.91;5031541;28;20423;-72
2022/08/10 11:28:19;;;;;;;4.28;3.28;;;;;;;30.59;42.80;91045.84;5031423;28;20095;-71
2022/08/10 12:36:36;;;;;;;3.35;2.80;;;;;;;24.97;63.89;91064.25;5084118;27;1291137;-71
2022/08/10 12:39:14;;;;;;;3.17;2.88;;;;;;;25.23;63.76;91068.47;5109050;28;20032;-71
2022/08/10 12:42:04;;;;;;;3.30;2.70;;;;;;;24.98;64.63;91073.97;5108876;28;20059;-71
2022/08/10 12:44:37;;;;;;;3.97;3.20;;;;;;;24.68;66.32;91071.72;5109104;28;20032;-71
2022/08/10 12:47:24;;;;;;;3.65;3.13;;;;;;;24.36;68.56;91066.31;5108897;28;20024;-71
2022/08/10 12:50:02;;;;;;;4.47;3.65;;;;;;;24.43;72.28;91069.03;5108856;28;20097;-71
2022/08/10 12:52:31;;;;;;;3.83;3.50;;;;;;;24.33;72.55;91051.56;5108866;28;20028;-72
2022/08/10 12:54:59;;;;;;;3.22;2.92;;;;;;;24.20;75.21;91039.50;5108573;28;20022;-72
2022/08/10 12:57:26;;;;;;;3.42;2.75;;;;;;;24.49;72.68;91046.50;5108661;28;20465;-72
2022/08/10 12:59:57;;;;;;;3.45;3.05;;;;;;;24.33;73.42;91045.34;5108647;28;20102;-70
2022/08/10 13:02:25;;;;;;;4.18;3.00;;;;;;;24.42;73.85;91043.78;5108625;28;20050;-72
2022/08/10 13:04:54;;;;;;;3.67;2.95;;;;;;;24.31;75.77;91039.53;5108537;28;20031;-72
2022/08/10 13:07:26;;;;;;;3.92;3.53;;;;;;;24.28;76.18;91045.69;5108518;28;20063;-75